K43 EFJY-EFJY

Flight info

Callsign K43
Flight time 0h 34m
Altitude 1500
Route POHJA AANEKOSKI TA TC
Aircraft G115/L-S/C

Departure

Time 2026-04-25 15:56
Airport Jyväskylä Airport (EFJY)

Arrival

Time 2026-04-25 16:31
Airport Jyväskylä Airport (EFJY)
Time Latitude Longitude Altitude Speed Heading
2026-04-25 15:38 62.40400 25.65579 464 ft 0 kts 86°
2026-04-25 15:39 62.40414 25.65577 464 ft 0 kts 86°
2026-04-25 15:49 62.40407 25.65601 463 ft 10 kts 146°
2026-04-25 15:49 62.40350 25.65619 463 ft 7 kts 175°
2026-04-25 15:49 62.40318 25.65685 463 ft 10 kts 101°
2026-04-25 15:50 62.40288 25.65873 459 ft 13 kts 107°
2026-04-25 15:50 62.40327 25.66020 460 ft 11 kts 45°
2026-04-25 15:50 62.40386 25.66144 461 ft 14 kts 45°
2026-04-25 15:50 62.40378 25.66291 463 ft 13 kts 132°
2026-04-25 15:51 62.40306 25.66451 463 ft 15 kts 132°
2026-04-25 15:51 62.40256 25.66562 462 ft 15 kts 134°
2026-04-25 15:51 62.40148 25.66801 462 ft 18 kts 132°
2026-04-25 15:51 62.40056 25.67006 464 ft 20 kts 137°
2026-04-25 15:52 62.39958 25.67229 465 ft 21 kts 133°
2026-04-25 15:52 62.39857 25.67456 460 ft 22 kts 135°
2026-04-25 15:52 62.39744 25.67706 449 ft 25 kts 134°
2026-04-25 15:52 62.39631 25.67960 429 ft 21 kts 137°
2026-04-25 15:53 62.39545 25.68198 425 ft 22 kts 116°
2026-04-25 15:53 62.39474 25.68488 420 ft 19 kts 123°
2026-04-25 15:53 62.39439 25.68629 417 ft 4 kts 116°
2026-04-25 15:53 62.39434 25.68652 418 ft 0 kts 116°
2026-04-25 15:54 62.39434 25.68653 419 ft 0 kts 115°
2026-04-25 15:54 62.39413 25.68737 418 ft 13 kts 115°
2026-04-25 15:55 62.39422 25.68872 421 ft 8 kts 45°
2026-04-25 15:55 62.39450 25.68932 419 ft 3 kts 20°
2026-04-25 15:55 62.39460 25.68920 426 ft 0 kts 305°
2026-04-25 15:55 62.39564 25.68700 432 ft 46 kts 313°
2026-04-25 15:56 62.39817 25.68062 594 ft 57 kts 319°
2026-04-25 15:56 62.40057 25.67402 843 ft 56 kts 314°
2026-04-25 15:56 62.40295 25.66655 1027 ft 65 kts 322°
2026-04-25 15:56 62.40604 25.65959 1244 ft 66 kts 330°
2026-04-25 15:57 62.41082 25.65642 1283 ft 78 kts 355°
2026-04-25 15:57 62.41664 25.65946 1223 ft 96 kts 22°
2026-04-25 15:57 62.42225 25.66757 1256 ft 96 kts 25°
2026-04-25 15:57 62.42770 25.66753 1483 ft 80 kts 333°
2026-04-25 15:58 62.43286 25.66118 1456 ft 87 kts 344°
2026-04-25 15:58 62.43871 25.65884 1504 ft 87 kts 358°
2026-04-25 15:58 62.44475 25.65972 1399 ft 100 kts
2026-04-25 15:58 62.45195 25.66172 1223 ft 106 kts
2026-04-25 15:59 62.45899 25.66522 1228 ft 98 kts 15°
2026-04-25 15:59 62.46508 25.66929 1321 ft 91 kts 11°
2026-04-25 15:59 62.47116 25.67241 1348 ft 91 kts 10°
2026-04-25 15:59 62.47725 25.67506 1395 ft 87 kts
2026-04-25 16:00 62.48325 25.67453 1385 ft 89 kts 353°
2026-04-25 16:00 62.48530 25.67381 1402 ft 88 kts 352°
2026-04-25 16:00 62.49567 25.66901 1299 ft 100 kts 350°
2026-04-25 16:00 62.50252 25.66552 1210 ft 103 kts 349°
2026-04-25 16:01 62.50931 25.66149 1270 ft 88 kts 347°
2026-04-25 16:01 62.51461 25.65766 1439 ft 81 kts 344°
2026-04-25 16:01 62.52044 25.65359 1339 ft 92 kts 349°
2026-04-25 16:01 62.52689 25.65229 1324 ft 95 kts 358°
2026-04-25 16:02 62.53339 25.64959 1382 ft 86 kts 347°
2026-04-25 16:02 62.53896 25.64613 1434 ft 85 kts 346°
2026-04-25 16:02 62.54486 25.64289 1377 ft 94 kts 350°
2026-04-25 16:02 62.55124 25.64009 1345 ft 94 kts 351°
2026-04-25 16:03 62.55761 25.63634 1297 ft 97 kts 343°
2026-04-25 16:03 62.56403 25.63123 1244 ft 96 kts 344°
2026-04-25 16:03 62.56997 25.62588 1322 ft 90 kts 340°
2026-04-25 16:03 62.57561 25.62014 1385 ft 86 kts 340°
2026-04-25 16:04 62.58110 25.61465 1387 ft 87 kts 342°
2026-04-25 16:04 62.58671 25.60957 1401 ft 87 kts 338°
2026-04-25 16:04 62.59194 25.60345 1385 ft 92 kts 336°
2026-04-25 16:04 62.59785 25.60045 1370 ft 94 kts 20°
2026-04-25 16:05 62.60309 25.61030 1311 ft 102 kts 34°
2026-04-25 16:05 62.60791 25.62138 1312 ft 104 kts 48°
2026-04-25 16:05 62.60180 25.64973 1802 ft 117 kts 116°
2026-04-25 16:06 62.59704 25.66398 1951 ft 118 kts 109°
2026-04-25 16:06 62.59348 25.67884 2163 ft 107 kts 97°
2026-04-25 16:06 62.59079 25.69357 2345 ft 104 kts 97°
2026-04-25 16:06 62.58777 25.70736 2553 ft 106 kts 106°
2026-04-25 16:07 62.58302 25.72106 2677 ft 112 kts 114°
2026-04-25 16:07 62.58144 25.72543 2784 ft 107 kts 114°
2026-04-25 16:07 62.57424 25.74636 3092 ft 98 kts 111°
2026-04-25 16:07 62.57034 25.75787 3258 ft 91 kts 108°
2026-04-25 16:08 62.56669 25.76907 3383 ft 90 kts 104°
2026-04-25 16:08 62.56344 25.78068 3510 ft 91 kts 104°
2026-04-25 16:08 62.55987 25.79256 3605 ft 97 kts 104°
2026-04-25 16:08 62.55637 25.80491 3747 ft 95 kts 103°
2026-04-25 16:09 62.55313 25.81715 3883 ft 93 kts 99°
2026-04-25 16:09 62.55042 25.82954 4015 ft 88 kts 88°
2026-04-25 16:09 62.54909 25.84170 4069 ft 88 kts 73°
2026-04-25 16:09 62.55181 25.85213 3979 ft 85 kts 21°
2026-04-25 16:10 62.55133 25.84557 3699 ft 139 kts 213°
2026-04-25 16:10 62.54190 25.84662 3534 ft 142 kts 153°
2026-04-25 16:10 62.53286 25.85536 3562 ft 140 kts 142°
2026-04-25 16:10 62.52574 25.86787 3650 ft 117 kts 98°
2026-04-25 16:11 62.52038 25.88249 3668 ft 130 kts 124°
2026-04-25 16:11 62.51411 25.89772 3624 ft 134 kts 122°
2026-04-25 16:11 62.50799 25.91287 3514 ft 133 kts 125°
2026-04-25 16:11 62.50176 25.92796 3496 ft 135 kts 123°
2026-04-25 16:12 62.49518 25.94330 3443 ft 141 kts 121°
2026-04-25 16:12 62.48834 25.95920 3393 ft 148 kts 126°
2026-04-25 16:12 62.48111 25.97443 3401 ft 139 kts 127°
2026-04-25 16:12 62.47881 25.97932 3429 ft 135 kts 125°
2026-04-25 16:13 62.46861 26.00345 3469 ft 126 kts 118°
2026-04-25 16:13 62.46506 26.01351 3504 ft 124 kts 112°
2026-04-25 16:13 62.46068 26.02995 3508 ft 127 kts 100°
2026-04-25 16:13 62.45963 26.04781 3506 ft 117 kts 66°
2026-04-25 16:14 62.46369 26.06140 3468 ft 107 kts 28°
2026-04-25 16:14 62.47067 26.06483 3431 ft 106 kts
2026-04-25 16:14 62.47805 26.06496 3414 ft 108 kts 359°
2026-04-25 16:14 62.48548 26.06438 3448 ft 105 kts 356°
2026-04-25 16:15 62.49275 26.06262 3455 ft 105 kts 354°
2026-04-25 16:15 62.49991 26.06108 3518 ft 101 kts 352°
2026-04-25 16:15 62.50687 26.05867 3458 ft 107 kts 353°
2026-04-25 16:15 62.51426 26.05576 3428 ft 109 kts 350°
2026-04-25 16:16 62.52171 26.05252 3375 ft 110 kts 352°
2026-04-25 16:16 62.52917 26.04956 3316 ft 105 kts 348°
2026-04-25 16:16 62.53566 26.04539 3303 ft 87 kts 348°
2026-04-25 16:16 62.54161 26.04169 3296 ft 92 kts 346°
2026-04-25 16:17 62.54765 26.03676 3363 ft 92 kts 339°
2026-04-25 16:17 62.55359 26.03034 3369 ft 99 kts 337°
2026-04-25 16:17 62.55859 26.01992 3431 ft 107 kts 307°
2026-04-25 16:17 62.55973 26.00301 3364 ft 112 kts 285°
2026-04-25 16:18 62.56009 25.98676 3418 ft 104 kts 289°
2026-04-25 16:18 62.56029 25.97624 3433 ft 107 kts 285°
2026-04-25 16:18 62.56014 25.95390 3525 ft 111 kts 281°
2026-04-25 16:18 62.55997 25.93692 3546 ft 112 kts 280°
2026-04-25 16:19 62.55977 25.92119 3510 ft 101 kts 283°
2026-04-25 16:19 62.56190 25.90992 3512 ft 82 kts
2026-04-25 16:19 62.56179 25.92208 3576 ft 129 kts 141°
2026-04-25 16:20 62.55064 25.90293 3976 ft 98 kts 249°
2026-04-25 16:20 62.54614 25.89113 4105 ft 102 kts 236°
2026-04-25 16:20 62.53489 25.87236 3928 ft 136 kts 202°
2026-04-25 16:21 62.52721 25.87111 3909 ft 134 kts 191°
2026-04-25 16:21 62.51918 25.86388 3970 ft 119 kts 228°
2026-04-25 16:21 62.51304 25.85283 3900 ft 112 kts 236°
2026-04-25 16:21 62.50646 25.84212 3656 ft 120 kts 231°
2026-04-25 16:22 62.49926 25.83152 2845 ft 131 kts 162°
2026-04-25 16:22 62.48919 25.83956 1879 ft 166 kts 190°
2026-04-25 16:22 62.47817 25.83052 1283 ft 174 kts 215°
2026-04-25 16:22 62.46847 25.81691 1225 ft 153 kts 212°
2026-04-25 16:23 62.46571 25.82126 1475 ft 68 kts 324°
2026-04-25 16:23 62.46123 25.81827 1418 ft 103 kts 86°
2026-04-25 16:23 62.46202 25.81506 1435 ft 121 kts 214°
2026-04-25 16:23 62.45817 25.82278 1384 ft 77 kts 15°
2026-04-25 16:24 62.45801 25.81131 1337 ft 102 kts 255°
2026-04-25 16:24 62.45415 25.79984 1326 ft 98 kts 229°
2026-04-25 16:24 62.44800 25.79190 1247 ft 105 kts 212°
2026-04-25 16:24 62.44127 25.78680 1375 ft 106 kts 195°
2026-04-25 16:25 62.43393 25.78331 1383 ft 113 kts 195°
2026-04-25 16:25 62.42862 25.78100 1371 ft 117 kts 194°
2026-04-25 16:25 62.41824 25.77617 1394 ft 118 kts 200°
2026-04-25 16:25 62.41042 25.77083 1422 ft 118 kts 201°
2026-04-25 16:26 62.40273 25.76502 1414 ft 119 kts 208°
2026-04-25 16:26 62.39534 25.75608 1361 ft 122 kts 222°
2026-04-25 16:26 62.38866 25.74591 1235 ft 114 kts 224°
2026-04-25 16:26 62.38246 25.73587 1006 ft 108 kts 232°
2026-04-25 16:27 62.38126 25.72350 837 ft 66 kts 301°
2026-04-25 16:27 62.38293 25.71568 738 ft 52 kts 316°
2026-04-25 16:27 62.38525 25.71007 633 ft 52 kts 324°
2026-04-25 16:27 62.38789 25.70382 567 ft 58 kts 322°
2026-04-25 16:28 62.39109 25.69696 464 ft 71 kts 322°
2026-04-25 16:28 62.39426 25.68988 426 ft 57 kts 321°
2026-04-25 16:28 62.39690 25.68362 566 ft 59 kts 315°
2026-04-25 16:28 62.39918 25.67703 836 ft 50 kts 315°
2026-04-25 16:29 62.40127 25.67129 1036 ft 51 kts 326°
2026-04-25 16:29 62.40449 25.66430 1090 ft 76 kts 335°
2026-04-25 16:29 62.40833 25.67153 1203 ft 80 kts 35°
2026-04-25 16:29 62.41245 25.68007 1324 ft 78 kts 35°
2026-04-25 16:30 62.41233 25.69215 1361 ft 119 kts 123°
2026-04-25 16:30 62.40640 25.70547 1371 ft 120 kts 120°
2026-04-25 16:30 62.40090 25.71880 1343 ft 121 kts 120°
2026-04-25 16:30 62.39512 25.73212 1219 ft 119 kts 126°
2026-04-25 16:31 62.38798 25.73652 1134 ft 107 kts 207°
2026-04-25 16:31 62.38247 25.72823 989 ft 88 kts 236°
2026-04-25 16:31 62.38115 25.71912 783 ft 49 kts 317°
2026-04-25 16:31 62.38328 25.71430 685 ft 44 kts 328°
2026-04-25 16:32 62.38555 25.70916 628 ft 54 kts 324°
2026-04-25 16:32 62.38868 25.70230 598 ft 80 kts 324°
2026-04-25 16:32 62.39333 25.69206 506 ft 108 kts 319°
2026-04-25 16:32 62.39834 25.68066 825 ft 78 kts 320°
2026-04-25 16:33 62.40112 25.67508 1308 ft 44 kts 355°
2026-04-25 16:33 62.40435 25.67702 1442 ft 54 kts 19°
2026-04-25 16:33 62.40729 25.68218 1350 ft 54 kts 25°
2026-04-25 16:33 62.40914 25.68895 1317 ft 60 kts 62°
2026-04-25 16:34 62.40919 25.69749 1288 ft 40 kts
2026-04-25 16:34 62.40720 25.69198 1208 ft 89 kts 165°
2026-04-25 16:34 62.40319 25.69941 1191 ft 70 kts 104°
2026-04-25 16:34 62.40045 25.70771 1262 ft 69 kts 102°
2026-04-25 16:35 62.39826 25.71701 1361 ft 74 kts 79°
2026-04-25 16:35 62.39615 25.72942 1435 ft 99 kts 93°
2026-04-25 16:35 62.39083 25.73782 1454 ft 104 kts 190°
2026-04-25 16:35 62.38599 25.72885 1225 ft 89 kts 266°
2026-04-25 16:36 62.38448 25.71615 1014 ft 82 kts 289°
2026-04-25 16:36 62.38480 25.71222 955 ft 75 kts 301°
2026-04-25 16:36 62.38951 25.70029 582 ft 61 kts 327°
2026-04-25 16:36 62.39236 25.69413 433 ft 52 kts 323°
2026-04-25 16:37 62.39445 25.68970 419 ft 34 kts 308°
2026-04-25 16:37 62.39588 25.68644 434 ft 27 kts 310°
2026-04-25 16:37 62.39718 25.68350 442 ft 27 kts 311°
2026-04-25 16:37 62.39836 25.68072 450 ft 23 kts 313°
2026-04-25 16:38 62.39959 25.67799 458 ft 29 kts 315°
2026-04-25 16:38 62.40072 25.67500 461 ft 19 kts 276°
2026-04-25 16:38 62.40008 25.67280 463 ft 17 kts 225°
2026-04-25 16:38 62.40006 25.67126 465 ft 15 kts 315°
2026-04-25 16:39 62.40099 25.66920 463 ft 21 kts 313°
2026-04-25 16:39 62.40191 25.66708 462 ft 18 kts 314°
2026-04-25 16:39 62.40268 25.66535 462 ft 14 kts 316°
2026-04-25 16:39 62.40335 25.66388 463 ft 16 kts 314°
2026-04-25 16:40 62.40404 25.66209 462 ft 12 kts 275°
2026-04-25 16:40 62.40350 25.66065 460 ft 14 kts 225°
2026-04-25 16:40 62.40275 25.65911 459 ft 15 kts 224°
2026-04-25 16:40 62.40206 25.65766 460 ft 9 kts 234°
2026-04-25 16:41 62.40194 25.65690 461 ft 3 kts 243°
2026-04-25 16:41 62.40186 25.65665 462 ft 2 kts 232°
2026-04-25 16:41 62.40185 25.65660 462 ft 0 kts 233°